createdAt,value
2023-02-25T00:01:27.499Z,3.42
2023-02-25T00:03:56.143Z,3.47
2023-02-25T00:06:23.958Z,2.96
2023-02-25T00:08:51.618Z,3.25
2023-02-25T00:11:20.048Z,3.28
2023-02-25T00:13:47.894Z,2.68
2023-02-25T00:16:15.609Z,2.77
2023-02-25T00:18:47.165Z,2.59
2023-02-25T00:21:17.023Z,2.58
2023-02-25T00:23:46.608Z,2.44
2023-02-25T00:26:16.404Z,2.15
2023-02-25T00:28:44.564Z,2.40
2023-02-25T00:31:17.872Z,2.30
2023-02-25T00:33:44.791Z,2.32
2023-02-25T00:36:23.486Z,2.32
2023-02-25T00:38:56.196Z,2.19
2023-02-25T00:41:27.154Z,2.10
2023-02-25T00:43:56.935Z,2.03
2023-02-25T00:46:25.595Z,2.13
2023-02-25T00:48:53.320Z,2.24
2023-02-25T00:51:23.752Z,2.34
2023-02-25T00:53:51.890Z,2.33
2023-02-25T00:56:20.614Z,2.31
2023-02-25T00:58:50.406Z,2.52
2023-02-25T01:01:23.106Z,2.71
2023-02-25T01:03:52.624Z,2.82
2023-02-25T01:06:19.862Z,2.82
2023-02-25T01:08:47.350Z,2.78
2023-02-25T01:11:16.536Z,2.95
2023-02-25T01:13:44.200Z,2.98
2023-02-25T01:16:16.159Z,3.02
2023-02-25T01:18:44.726Z,3.03
2023-02-25T01:21:27.162Z,3.04
2023-02-25T01:24:04.444Z,2.99
2023-02-25T01:26:35.456Z,2.89
2023-02-25T01:29:05.917Z,2.82
2023-02-25T01:31:32.965Z,2.88
2023-02-25T01:34:03.883Z,2.82
2023-02-25T01:36:32.517Z,2.82
2023-02-25T01:39:00.750Z,2.82
2023-02-25T01:41:30.930Z,2.94
2023-02-25T01:44:16.806Z,2.90
2023-02-25T01:46:46.978Z,2.73
2023-02-25T01:49:30.398Z,2.78
2023-02-25T01:52:13.788Z,2.85
2023-02-25T01:54:45.848Z,2.93
2023-02-25T01:57:15.949Z,2.80
2023-02-25T01:59:44.466Z,2.83
2023-02-25T02:02:18.449Z,3.12
2023-02-25T02:04:50.502Z,2.93
2023-02-25T02:07:18.981Z,2.78
2023-02-25T02:10:00.241Z,2.97
2023-02-25T02:12:32.018Z,2.84
2023-02-25T02:15:01.242Z,2.67
2023-02-25T02:17:43.955Z,2.63
2023-02-25T02:20:23.289Z,2.51
2023-02-25T02:23:11.266Z,2.56
2023-02-25T02:26:02.936Z,2.37
2023-02-25T02:29:03.618Z,2.12
2023-02-25T02:31:39.925Z,2.09
2023-02-25T02:34:40.117Z,2.15
2023-02-25T02:37:11.393Z,1.99
2023-02-25T02:40:00.174Z,1.81
2023-02-25T02:42:45.103Z,1.84
2023-02-25T02:45:50.445Z,1.80
2023-02-25T02:49:06.587Z,1.82
2023-02-25T02:51:40.201Z,1.73
2023-02-25T02:54:10.760Z,1.78
2023-02-25T02:56:42.493Z,1.65
2023-02-25T02:59:26.417Z,1.58
2023-02-25T03:02:04.662Z,1.67
2023-02-25T03:04:36.262Z,1.76
2023-02-25T03:07:07.509Z,1.86
2023-02-25T03:09:40.152Z,1.85
2023-02-25T03:12:07.396Z,1.53
2023-02-25T03:14:36.380Z,1.87
2023-02-25T03:17:19.762Z,1.86
2023-02-25T03:20:16.922Z,1.78
2023-02-25T03:22:48.066Z,1.83
2023-02-25T03:25:25.772Z,1.95
2023-02-25T03:27:55.865Z,1.73
2023-02-25T03:30:28.409Z,1.86
2023-02-25T03:33:34.891Z,1.93
2023-02-25T03:36:09.227Z,2.09
2023-02-25T03:38:39.492Z,2.00
2023-02-25T03:41:08.597Z,2.01
2023-02-25T03:43:44.594Z,2.02
2023-02-25T03:46:12.807Z,1.84
2023-02-25T03:48:40.888Z,1.79
2023-02-25T03:51:09.002Z,2.05
2023-02-25T03:53:36.444Z,1.88
2023-02-25T03:56:07.440Z,1.88
2023-02-25T03:58:40.797Z,1.78
2023-02-25T04:01:17.354Z,2.08
2023-02-25T04:03:44.776Z,2.07
2023-02-25T04:06:14.830Z,1.80
2023-02-25T04:08:42.414Z,1.85
2023-02-25T04:11:09.364Z,1.83
2023-02-25T04:13:36.306Z,1.96
2023-02-25T04:16:03.253Z,1.88
2023-02-25T04:18:30.145Z,1.81
2023-02-25T04:20:56.985Z,1.85
2023-02-25T04:23:24.016Z,1.86
2023-02-25T04:25:50.973Z,1.77
2023-02-25T04:28:18.278Z,1.83
2023-02-25T04:30:45.307Z,1.83
2023-02-25T04:33:12.415Z,1.93
2023-02-25T04:35:39.588Z,2.00
2023-02-25T04:38:09.035Z,1.96
2023-02-25T04:40:36.582Z,2.01
2023-02-25T04:43:03.795Z,1.89
2023-02-25T04:45:31.044Z,1.92
2023-02-25T04:48:00.950Z,1.90
2023-02-25T04:50:28.230Z,1.82
2023-02-25T04:52:55.232Z,1.98
2023-02-25T04:55:22.212Z,1.95
2023-02-25T04:57:49.178Z,1.88
2023-02-25T05:00:19.748Z,1.90
2023-02-25T05:02:48.162Z,2.07
2023-02-25T05:05:15.966Z,1.89
2023-02-25T05:07:43.688Z,1.96
2023-02-25T05:10:14.688Z,2.06
2023-02-25T05:12:41.793Z,2.00
2023-02-25T05:15:09.688Z,1.92
2023-02-25T05:17:37.024Z,1.86
2023-02-25T05:20:13.454Z,1.84
2023-02-25T05:22:42.247Z,1.74
2023-02-25T05:25:10.452Z,1.89
2023-02-25T05:27:37.621Z,1.95
2023-02-25T05:30:05.446Z,1.87
2023-02-25T05:32:32.636Z,2.14
2023-02-25T05:34:59.708Z,2.15
2023-02-25T05:37:26.703Z,2.05
2023-02-25T05:39:53.572Z,2.09
2023-02-25T05:42:20.534Z,2.02
2023-02-25T05:44:47.566Z,1.90
2023-02-25T05:47:15.333Z,1.88
2023-02-25T05:49:43.034Z,1.92
2023-02-25T05:52:14.692Z,2.03
2023-02-25T05:54:41.939Z,2.04
2023-02-25T05:57:09.223Z,2.11
2023-02-25T05:59:37.063Z,2.07
2023-02-25T06:02:04.861Z,2.19
2023-02-25T06:04:32.512Z,1.96
2023-02-25T06:06:59.436Z,2.02
2023-02-25T06:09:27.543Z,2.03
2023-02-25T06:11:54.409Z,2.04
2023-02-25T06:14:21.230Z,1.96
2023-02-25T06:16:48.076Z,1.93
2023-02-25T06:19:15.309Z,2.06
2023-02-25T06:21:42.372Z,1.97
2023-02-25T06:24:10.658Z,1.77
2023-02-25T06:26:42.036Z,1.94
2023-02-25T06:29:10.272Z,2.10
2023-02-25T06:31:37.825Z,2.11
2023-02-25T06:34:05.562Z,2.09
2023-02-25T06:36:33.039Z,1.87
2023-02-25T06:39:02.930Z,1.78
2023-02-25T06:41:29.924Z,1.83
2023-02-25T06:43:57.022Z,1.74
2023-02-25T06:46:26.335Z,1.59
2023-02-25T06:48:55.130Z,1.55
2023-02-25T06:51:22.475Z,1.67
2023-02-25T06:53:51.197Z,1.68
2023-02-25T06:56:20.614Z,1.82
2023-02-25T06:58:48.175Z,2.09
2023-02-25T07:01:16.690Z,1.92
2023-02-25T07:03:44.067Z,1.90
2023-02-25T07:06:16.127Z,2.03
2023-02-25T07:08:42.975Z,1.82
2023-02-25T07:11:19.525Z,1.98
2023-02-25T07:13:50.070Z,2.22
2023-02-25T07:16:17.635Z,2.15
2023-02-25T07:18:45.036Z,2.36
2023-02-25T07:21:13.411Z,2.20
2023-02-25T07:23:40.937Z,2.33
2023-02-25T07:26:10.243Z,2.45
2023-02-25T07:28:37.666Z,2.55
2023-02-25T07:31:11.504Z,2.35
2023-02-25T07:33:38.483Z,2.44
2023-02-25T07:36:05.757Z,2.33
2023-02-25T07:38:32.711Z,2.69
2023-02-25T07:41:10.298Z,2.62
2023-02-25T07:43:37.439Z,2.63
2023-02-25T07:46:04.776Z,2.69
2023-02-25T07:48:31.941Z,2.67
2023-02-25T07:51:11.087Z,2.62
2023-02-25T07:53:38.920Z,2.66
2023-02-25T07:56:10.410Z,2.61
2023-02-25T07:58:37.679Z,2.43
2023-02-25T08:01:17.457Z,2.43
2023-02-25T08:03:44.633Z,2.26
2023-02-25T08:06:11.571Z,2.26
2023-02-25T08:08:38.706Z,2.46
2023-02-25T08:11:11.519Z,2.69
2023-02-25T08:13:38.996Z,2.77
2023-02-25T08:16:10.882Z,2.87
2023-02-25T08:18:38.413Z,2.84
2023-02-25T08:21:06.200Z,2.95
2023-02-25T08:23:33.134Z,2.98
2023-02-25T08:26:01.024Z,2.79
2023-02-25T08:28:34.291Z,2.99
2023-02-25T08:31:03.447Z,2.97
2023-02-25T08:33:30.706Z,2.85
2023-02-25T08:36:07.370Z,2.82
2023-02-25T08:38:34.394Z,3.26
2023-02-25T08:41:01.421Z,3.38
2023-02-25T08:43:28.450Z,3.14
2023-02-25T08:45:56.962Z,2.99
2023-02-25T08:48:23.922Z,2.95
2023-02-25T08:50:50.816Z,3.00
2023-02-25T08:53:18.151Z,2.82
2023-02-25T08:55:47.504Z,3.00
2023-02-25T08:58:14.672Z,2.90
2023-02-25T09:00:41.757Z,3.15
2023-02-25T09:03:09.079Z,3.47
2023-02-25T09:05:38.289Z,3.23
2023-02-25T09:08:05.339Z,3.12
2023-02-25T09:10:48.336Z,2.98
2023-02-25T09:13:17.532Z,3.78
2023-02-25T09:15:44.378Z,3.70
2023-02-25T09:18:12.078Z,4.17
2023-02-25T09:20:39.147Z,4.12
2023-02-25T09:23:06.256Z,4.25
2023-02-25T09:25:33.252Z,4.66
2023-02-25T09:28:01.339Z,5.03
2023-02-25T09:30:28.562Z,5.02
2023-02-25T09:32:56.023Z,5.29
2023-02-25T09:35:24.489Z,5.47
2023-02-25T09:37:52.837Z,5.60
2023-02-25T09:40:23.123Z,8.77
2023-02-25T09:43:06.340Z,13.58
2023-02-25T09:45:35.652Z,18.02
2023-02-25T09:48:15.241Z,17.98
2023-02-25T09:50:47.638Z,13.47
2023-02-25T09:53:26.431Z,10.26
2023-02-25T09:55:53.770Z,12.87
2023-02-25T09:58:37.904Z,11.64
2023-02-25T10:01:11.477Z,9.99
2023-02-25T10:03:54.691Z,12.76
2023-02-25T10:06:35.543Z,16.17
2023-02-25T10:09:25.890Z,11.73
2023-02-25T10:12:16.344Z,10.62
2023-02-25T10:15:23.183Z,11.99
2023-02-25T10:18:28.849Z,9.68
2023-02-25T10:20:58.753Z,7.37
2023-02-25T10:23:50.127Z,6.37
2023-02-25T10:26:22.036Z,5.84
2023-02-25T10:28:55.374Z,5.59
2023-02-25T10:31:24.003Z,5.36
2023-02-25T10:33:53.127Z,5.28
2023-02-25T10:36:35.023Z,5.18
2023-02-25T10:39:04.779Z,4.78
2023-02-25T10:41:31.915Z,5.09
2023-02-25T10:44:01.769Z,5.96
2023-02-25T10:47:00.579Z,5.96
2023-02-25T10:49:30.519Z,5.85
2023-02-25T10:52:05.567Z,6.37
2023-02-25T10:54:35.605Z,7.68
2023-02-25T10:57:14.963Z,8.31
2023-02-25T10:59:43.659Z,6.70
2023-02-25T11:02:28.909Z,5.56
2023-02-25T11:04:56.624Z,4.83
2023-02-25T11:07:49.094Z,4.86
2023-02-25T11:10:20.830Z,4.97
2023-02-25T11:12:57.358Z,5.19
2023-02-25T11:15:43.607Z,5.87
2023-02-25T11:18:31.185Z,6.13
2023-02-25T11:21:02.061Z,5.74
2023-02-25T11:23:44.217Z,5.31
2023-02-25T11:26:35.196Z,4.86
2023-02-25T11:29:14.466Z,4.67
2023-02-25T11:31:43.629Z,4.80
2023-02-25T11:34:20.417Z,5.18
2023-02-25T11:36:50.806Z,5.23
2023-02-25T11:39:24.625Z,5.26
2023-02-25T11:41:55.318Z,5.10
2023-02-25T11:44:43.635Z,5.31
2023-02-25T11:47:14.335Z,5.15
2023-02-25T11:49:42.591Z,5.54
2023-02-25T11:52:40.177Z,5.62
2023-02-25T11:55:44.586Z,5.41
2023-02-25T11:58:17.701Z,5.42
2023-02-25T12:01:01.619Z,4.70
2023-02-25T12:03:47.370Z,4.68
2023-02-25T12:06:44.898Z,5.51
2023-02-25T12:10:11.953Z,5.60
2023-02-25T12:13:34.012Z,5.07
2023-02-25T12:16:15.882Z,5.47
2023-02-25T12:19:19.994Z,6.21
2023-02-25T12:22:13.611Z,5.68
2023-02-25T12:24:53.351Z,5.17
2023-02-25T12:27:47.411Z,4.15
2023-02-25T12:30:16.934Z,3.68
2023-02-25T12:33:02.412Z,3.75
2023-02-25T12:35:49.885Z,4.33
2023-02-25T12:38:41.329Z,4.46
2023-02-25T12:41:17.281Z,5.22
2023-02-25T12:43:56.192Z,5.46
2023-02-25T12:47:30.472Z,5.28
2023-02-25T12:50:15.774Z,4.84
2023-02-25T12:52:43.442Z,4.29
2023-02-25T12:55:25.675Z,4.20
2023-02-25T12:58:04.574Z,4.22
2023-02-25T13:00:58.946Z,4.35
2023-02-25T13:03:33.436Z,4.32
2023-02-25T13:06:15.413Z,4.26
2023-02-25T13:08:45.234Z,4.29
2023-02-25T13:11:23.812Z,4.23
2023-02-25T13:14:09.636Z,4.15
2023-02-25T13:16:45.417Z,4.18
2023-02-25T13:19:21.427Z,4.49
2023-02-25T13:21:58.976Z,4.55
2023-02-25T13:24:55.949Z,4.72
2023-02-25T13:27:46.636Z,4.55
2023-02-25T13:30:44.756Z,3.98
2023-02-25T13:33:11.798Z,3.79
2023-02-25T13:36:01.500Z,3.79
2023-02-25T13:38:39.029Z,3.85
2023-02-25T13:41:12.304Z,3.80
2023-02-25T13:43:54.346Z,3.87
2023-02-25T13:46:51.556Z,4.35
2023-02-25T13:49:43.170Z,4.72
2023-02-25T13:52:55.005Z,4.70
2023-02-25T13:55:22.196Z,4.54
2023-02-25T13:58:07.076Z,4.31
2023-02-25T14:00:53.826Z,4.10
2023-02-25T14:03:36.041Z,3.87
2023-02-25T14:06:48.205Z,3.79
2023-02-25T14:09:36.170Z,3.81
2023-02-25T14:12:15.114Z,3.98
2023-02-25T14:15:12.400Z,4.64
2023-02-25T14:18:12.453Z,5.15
2023-02-25T14:21:09.386Z,4.81
2023-02-25T14:23:48.508Z,4.55
2023-02-25T14:26:23.509Z,3.91
2023-02-25T14:29:11.521Z,3.85
2023-02-25T14:31:54.465Z,3.92
2023-02-25T14:34:33.580Z,3.79
2023-02-25T14:37:18.845Z,3.98
2023-02-25T14:40:04.371Z,4.32
2023-02-25T14:42:54.517Z,4.67
2023-02-25T14:45:27.563Z,4.81
2023-02-25T14:48:10.863Z,4.88
2023-02-25T14:50:54.697Z,4.70
2023-02-25T14:54:06.810Z,4.88
2023-02-25T14:57:12.782Z,4.89
2023-02-25T14:59:51.701Z,4.81
2023-02-25T15:02:42.206Z,4.57
2023-02-25T15:05:27.797Z,4.46
2023-02-25T15:08:06.165Z,4.08
2023-02-25T15:10:51.463Z,3.82
2023-02-25T15:13:48.048Z,3.76
2023-02-25T15:16:18.210Z,4.00
2023-02-25T15:19:10.522Z,3.63
2023-02-25T15:21:41.343Z,3.49
2023-02-25T15:24:28.208Z,3.36
2023-02-25T15:26:56.884Z,3.41
2023-02-25T15:29:36.469Z,3.38
2023-02-25T15:32:15.653Z,3.34
2023-02-25T15:35:06.217Z,3.52
2023-02-25T15:37:35.430Z,3.78
2023-02-25T15:40:14.475Z,3.90
2023-02-25T15:42:55.576Z,3.75
2023-02-25T15:45:28.657Z,3.42
2023-02-25T15:48:08.030Z,2.97
2023-02-25T15:50:44.832Z,2.68
2023-02-25T15:53:21.298Z,2.63
2023-02-25T15:55:52.042Z,2.58
2023-02-25T15:58:24.872Z,2.29
2023-02-25T16:01:01.385Z,2.24
2023-02-25T16:03:36.781Z,2.07
2023-02-25T16:06:32.448Z,1.96
2023-02-25T16:09:12.705Z,2.06
2023-02-25T16:11:44.820Z,2.01
2023-02-25T16:14:31.542Z,1.87
2023-02-25T16:17:12.723Z,1.89
2023-02-25T16:19:40.763Z,1.89
2023-02-25T16:22:16.046Z,1.82
2023-02-25T16:24:48.320Z,1.60
2023-02-25T16:27:37.651Z,1.64
2023-02-25T16:30:28.498Z,1.64
2023-02-25T16:33:29.496Z,1.61
2023-02-25T16:36:16.490Z,1.60
2023-02-25T16:38:50.682Z,1.80
2023-02-25T16:41:22.339Z,1.61
2023-02-25T16:43:52.821Z,1.59
2023-02-25T16:46:29.103Z,1.29
2023-02-25T16:48:59.244Z,1.56
2023-02-25T16:51:42.857Z,1.57
2023-02-25T16:54:23.916Z,1.48
2023-02-25T16:56:59.114Z,1.43
2023-02-25T16:59:26.716Z,1.36
2023-02-25T17:01:53.449Z,1.26
2023-02-25T17:04:24.935Z,1.15
2023-02-25T17:07:25.472Z,1.03
2023-02-25T17:10:02.112Z,1.07
2023-02-25T17:12:37.345Z,0.98
2023-02-25T17:15:13.388Z,0.98
2023-02-25T17:17:43.418Z,0.79
2023-02-25T17:20:23.685Z,0.97
2023-02-25T17:22:52.221Z,0.77
2023-02-25T17:25:20.929Z,0.83
2023-02-25T17:27:50.384Z,0.62
2023-02-25T17:30:42.084Z,0.72
2023-02-25T17:33:26.234Z,0.69
2023-02-25T17:35:57.867Z,0.63
2023-02-25T17:38:26.077Z,0.60
2023-02-25T17:40:55.477Z,0.58
2023-02-25T17:43:26.462Z,0.48
2023-02-25T17:46:36.621Z,0.43
2023-02-25T17:49:25.329Z,0.44
2023-02-25T17:51:56.816Z,0.52
2023-02-25T17:54:26.132Z,0.55
2023-02-25T17:57:06.485Z,0.57
2023-02-25T17:59:39.749Z,0.58
2023-02-25T18:02:39.782Z,0.63
2023-02-25T18:05:12.535Z,0.55
2023-02-25T18:07:44.545Z,0.51
2023-02-25T18:10:23.469Z,0.54
2023-02-25T18:12:50.930Z,0.42
2023-02-25T18:15:25.878Z,0.31
2023-02-25T18:17:58.596Z,0.20
2023-02-25T18:20:32.592Z,0.19
2023-02-25T18:23:07.931Z,0.15
2023-02-25T18:25:42.549Z,0.05
2023-02-25T18:28:15.922Z,0.08
2023-02-25T18:30:46.286Z,0.08
2023-02-25T18:33:13.724Z,-0.03
2023-02-25T18:35:43.502Z,0.03
2023-02-25T18:38:17.919Z,0.12
2023-02-25T18:40:45.409Z,0.24
2023-02-25T18:43:17.395Z,0.18
2023-02-25T18:45:44.783Z,-0.14
2023-02-25T18:48:12.676Z,-0.26
2023-02-25T18:50:42.523Z,-0.18
2023-02-25T18:53:15.446Z,-0.23
2023-02-25T18:55:42.421Z,-0.35
2023-02-25T18:58:14.413Z,-0.42
2023-02-25T19:00:41.733Z,-0.50
2023-02-25T19:03:11.655Z,-0.59
2023-02-25T19:05:40.451Z,-0.54
2023-02-25T19:08:15.222Z,-0.55
2023-02-25T19:10:46.770Z,-0.51
2023-02-25T19:13:19.489Z,-0.56
2023-02-25T19:15:46.581Z,-0.71
2023-02-25T19:18:17.843Z,-0.72
2023-02-25T19:20:48.522Z,-0.64
2023-02-25T19:23:18.142Z,-0.76
2023-02-25T19:25:47.911Z,-1.06
2023-02-25T19:28:15.483Z,-1.07
2023-02-25T19:30:47.372Z,-0.99
2023-02-25T19:33:14.450Z,-1.14
2023-02-25T19:35:43.391Z,-1.14
2023-02-25T19:38:18.710Z,-1.23
2023-02-25T19:40:48.858Z,-1.25
2023-02-25T19:43:17.231Z,-1.29
2023-02-25T19:45:44.866Z,-1.30
2023-02-25T19:48:12.165Z,-1.34
2023-02-25T19:50:41.568Z,-1.42
2023-02-25T19:53:09.287Z,-1.44
2023-02-25T19:55:36.476Z,-1.42
2023-02-25T19:58:03.484Z,-1.46
2023-02-25T20:00:30.550Z,-1.52
2023-02-25T20:02:57.511Z,-1.64
2023-02-25T20:05:25.114Z,-1.59
2023-02-25T20:07:52.748Z,-1.58
2023-02-25T20:10:19.757Z,-1.62
2023-02-25T20:12:47.371Z,-1.67
2023-02-25T20:15:15.805Z,-1.90
2023-02-25T20:17:49.687Z,-1.33
2023-02-25T20:20:17.413Z,-0.97
2023-02-25T20:22:44.561Z,-0.78
2023-02-25T20:25:13.590Z,-0.68
2023-02-25T20:27:43.812Z,-0.36
2023-02-25T20:30:15.833Z,-0.61
2023-02-25T20:32:44.943Z,-0.64
2023-02-25T20:35:21.861Z,-0.98
2023-02-25T20:38:01.404Z,-1.17
2023-02-25T20:40:28.488Z,-1.34
2023-02-25T20:42:55.572Z,-1.50
2023-02-25T20:45:22.950Z,-1.36
2023-02-25T20:47:53.100Z,-1.35
2023-02-25T20:50:27.249Z,-1.35
2023-02-25T20:52:55.266Z,-1.44
2023-02-25T20:55:22.275Z,-1.45
2023-02-25T20:57:49.219Z,-1.31
2023-02-25T21:00:16.701Z,-1.24
2023-02-25T21:02:43.828Z,-1.19
2023-02-25T21:05:10.583Z,-1.22
2023-02-25T21:07:37.432Z,-1.35
2023-02-25T21:10:04.631Z,-1.31
2023-02-25T21:12:31.671Z,-1.45
2023-02-25T21:14:58.681Z,-1.48
2023-02-25T21:17:26.040Z,-1.65
2023-02-25T21:19:52.913Z,-1.57
2023-02-25T21:22:19.875Z,-1.54
2023-02-25T21:24:46.948Z,-1.47
2023-02-25T21:27:13.887Z,-1.58
2023-02-25T21:29:40.900Z,-1.58
2023-02-25T21:32:07.969Z,-1.45
2023-02-25T21:34:34.959Z,-1.37
2023-02-25T21:37:01.869Z,-1.34
2023-02-25T21:39:28.790Z,-1.30
2023-02-25T21:41:55.942Z,-1.13
2023-02-25T21:44:24.298Z,-0.66
2023-02-25T21:46:54.082Z,-0.48
2023-02-25T21:49:21.204Z,-0.42
2023-02-25T21:51:48.200Z,-0.15
2023-02-25T21:54:15.476Z,-0.12
2023-02-25T21:56:42.667Z,0.05
2023-02-25T21:59:09.789Z,-0.10
2023-02-25T22:01:38.730Z,0.10
2023-02-25T22:04:06.831Z,0.09
2023-02-25T22:06:34.374Z,0.05
2023-02-25T22:09:01.489Z,-0.16
2023-02-25T22:11:34.805Z,-0.43
2023-02-25T22:14:04.091Z,-0.71
2023-02-25T22:16:30.845Z,-1.00
2023-02-25T22:18:58.903Z,-1.08
2023-02-25T22:21:29.954Z,-1.10
2023-02-25T22:23:59.535Z,-1.16
2023-02-25T22:26:30.617Z,-1.16
2023-02-25T22:29:06.652Z,-1.19
2023-02-25T22:31:35.264Z,-1.33
2023-02-25T22:34:03.268Z,-1.34
2023-02-25T22:36:30.350Z,-1.51
2023-02-25T22:38:57.592Z,-1.54
2023-02-25T22:41:29.620Z,-1.69
2023-02-25T22:43:58.495Z,-1.77
2023-02-25T22:46:25.717Z,-1.63
2023-02-25T22:48:53.516Z,-1.43
2023-02-25T22:51:26.901Z,-1.22
2023-02-25T22:53:55.289Z,-1.15
2023-02-25T22:56:23.411Z,-0.96
2023-02-25T22:58:51.297Z,-1.10
2023-02-25T23:01:21.336Z,-0.99
2023-02-25T23:03:49.549Z,-1.14
2023-02-25T23:06:18.281Z,-1.32
2023-02-25T23:08:47.622Z,-1.36
2023-02-25T23:11:21.774Z,-1.46
2023-02-25T23:13:52.784Z,-1.38
2023-02-25T23:16:23.181Z,-1.45
2023-02-25T23:18:54.281Z,-1.24
2023-02-25T23:21:21.245Z,-1.27
2023-02-25T23:23:55.728Z,-1.31
2023-02-25T23:26:25.749Z,-1.27
2023-02-25T23:28:59.655Z,-1.39
2023-02-25T23:31:32.001Z,-1.64
2023-02-25T23:34:01.884Z,-1.58
2023-02-25T23:36:29.125Z,-1.71
2023-02-25T23:39:00.801Z,-1.69
2023-02-25T23:41:28.735Z,-1.72
2023-02-25T23:43:58.381Z,-1.82
2023-02-25T23:46:27.895Z,-1.84
2023-02-25T23:48:59.756Z,-1.77
2023-02-25T23:51:27.322Z,-1.79
2023-02-25T23:54:02.311Z,-1.73
2023-02-25T23:56:31.188Z,-1.77
2023-02-25T23:58:58.586Z,-2.06
